createdAt,value
2022-12-03T00:00:00.301Z,42.3
2022-12-03T00:01:00.283Z,42.3
2022-12-03T00:02:00.289Z,42.3
2022-12-03T00:03:00.395Z,46.1
2022-12-03T00:04:00.456Z,46.1
2022-12-03T00:05:00.257Z,46.1
2022-12-03T00:06:00.254Z,46.1
2022-12-03T00:07:00.220Z,46.1
2022-12-03T00:08:00.420Z,45.0
2022-12-03T00:09:00.525Z,45.0
2022-12-03T00:10:00.236Z,45.0
2022-12-03T00:11:00.269Z,45.0
2022-12-03T00:12:00.745Z,45.0
2022-12-03T00:13:00.219Z,48.7
2022-12-03T00:14:00.374Z,48.7
2022-12-03T00:15:00.366Z,48.7
2022-12-03T00:16:00.367Z,48.7
2022-12-03T00:17:00.546Z,48.7
2022-12-03T00:18:00.214Z,49.0
2022-12-03T00:19:00.270Z,49.0
2022-12-03T00:20:00.349Z,49.0
2022-12-03T00:21:00.226Z,49.0
2022-12-03T00:22:00.209Z,49.0
2022-12-03T00:23:00.243Z,46.7
2022-12-03T00:24:00.208Z,46.7
2022-12-03T00:25:00.257Z,46.7
2022-12-03T00:26:00.281Z,46.7
2022-12-03T00:27:00.263Z,46.7
2022-12-03T00:28:00.208Z,49.5
2022-12-03T00:29:00.301Z,49.5
2022-12-03T00:30:00.272Z,49.5
2022-12-03T00:31:00.258Z,49.5
2022-12-03T00:32:00.364Z,49.5
2022-12-03T00:33:00.316Z,45.7
2022-12-03T00:34:00.196Z,45.7
2022-12-03T00:35:00.456Z,45.7
2022-12-03T00:36:00.248Z,45.7
2022-12-03T00:37:00.200Z,45.7
2022-12-03T00:38:00.300Z,49.1
2022-12-03T00:39:00.274Z,49.1
2022-12-03T00:40:00.753Z,49.1
2022-12-03T00:41:00.221Z,49.1
2022-12-03T00:42:00.273Z,49.1
2022-12-03T00:43:00.222Z,51.6
2022-12-03T00:44:00.213Z,51.6
2022-12-03T00:45:00.295Z,51.6
2022-12-03T00:46:00.355Z,51.6
2022-12-03T00:47:00.311Z,36.6
2022-12-03T00:48:00.240Z,36.6
2022-12-03T00:49:00.191Z,36.6
2022-12-03T00:50:00.288Z,36.6
2022-12-03T00:51:00.238Z,36.6
2022-12-03T00:52:00.402Z,54.9
2022-12-03T00:53:00.243Z,54.9
2022-12-03T00:54:00.509Z,54.9
2022-12-03T00:55:00.281Z,54.9
2022-12-03T00:56:00.236Z,54.9
2022-12-03T00:57:00.266Z,49.5
2022-12-03T00:58:00.251Z,49.5
2022-12-03T00:59:00.249Z,49.5
2022-12-03T01:00:00.363Z,49.5
2022-12-03T01:01:00.226Z,49.5
2022-12-03T01:02:00.346Z,48.0
2022-12-03T01:03:00.483Z,48.0
2022-12-03T01:04:00.209Z,48.0
2022-12-03T01:05:00.571Z,48.0
2022-12-03T01:06:00.327Z,48.0
2022-12-03T01:07:00.320Z,45.4
2022-12-03T01:08:00.375Z,45.4
2022-12-03T01:09:01.802Z,45.4
2022-12-03T01:10:00.241Z,45.4
2022-12-03T01:11:00.248Z,45.4
2022-12-03T01:12:00.464Z,48.3
2022-12-03T01:13:00.307Z,48.3
2022-12-03T01:14:00.293Z,48.3
2022-12-03T01:15:00.504Z,48.3
2022-12-03T01:16:00.316Z,48.3
2022-12-03T01:17:00.290Z,48.6
2022-12-03T01:18:00.270Z,48.6
2022-12-03T01:19:00.377Z,48.6
2022-12-03T01:20:00.547Z,48.6
2022-12-03T01:21:00.359Z,48.6
2022-12-03T01:22:01.166Z,50.6
2022-12-03T01:23:00.324Z,50.6
2022-12-03T01:24:00.987Z,50.6
2022-12-03T01:25:00.597Z,50.6
2022-12-03T01:26:00.241Z,50.6
2022-12-03T01:27:00.272Z,51.0
2022-12-03T01:28:00.385Z,51.0
2022-12-03T01:29:00.203Z,51.0
2022-12-03T01:30:00.218Z,51.0
2022-12-03T01:31:00.461Z,51.0
2022-12-03T01:32:00.219Z,49.0
2022-12-03T01:33:00.213Z,49.0
2022-12-03T01:34:00.308Z,49.0
2022-12-03T01:35:00.207Z,49.0
2022-12-03T01:36:00.233Z,49.0
2022-12-03T01:37:00.239Z,49.7
2022-12-03T01:38:00.273Z,49.7
2022-12-03T01:39:01.995Z,49.7
2022-12-03T01:40:00.319Z,49.7
2022-12-03T01:41:00.205Z,49.7
2022-12-03T01:42:01.104Z,51.0
2022-12-03T01:43:00.280Z,51.0
2022-12-03T01:44:02.217Z,51.0
2022-12-03T01:45:00.770Z,51.0
2022-12-03T01:46:00.498Z,51.0
2022-12-03T01:47:03.958Z,50.6
2022-12-03T01:48:00.298Z,50.6
2022-12-03T01:49:00.323Z,50.6
2022-12-03T01:50:05.560Z,50.6
2022-12-03T01:51:00.706Z,50.6
2022-12-03T01:52:00.329Z,52.1
2022-12-03T01:53:01.848Z,52.1
2022-12-03T01:54:01.290Z,52.1
2022-12-03T01:55:04.889Z,52.1
2022-12-03T01:56:00.704Z,52.1
2022-12-03T01:57:00.244Z,54.4
2022-12-03T01:58:01.395Z,54.4
2022-12-03T01:59:00.392Z,54.4
2022-12-03T02:00:00.748Z,54.4
2022-12-03T02:01:05.292Z,54.4
2022-12-03T02:02:16.304Z,54.2
2022-12-03T02:03:07.267Z,54.2
2022-12-03T02:04:00.436Z,54.2
2022-12-03T02:05:04.945Z,54.2
2022-12-03T02:06:00.300Z,54.2
2022-12-03T02:07:20.111Z,53.0
2022-12-03T02:08:00.520Z,53.0
2022-12-03T02:09:00.385Z,53.0
2022-12-03T02:10:02.210Z,53.0
2022-12-03T02:11:04.456Z,53.0
2022-12-03T02:12:00.237Z,49.8
2022-12-03T02:13:04.283Z,49.8
2022-12-03T02:14:04.380Z,49.8
2022-12-03T02:15:01.275Z,49.8
2022-12-03T02:16:00.324Z,49.8
2022-12-03T02:17:00.276Z,49.3
2022-12-03T02:18:00.730Z,49.3
2022-12-03T02:19:00.948Z,49.3
2022-12-03T02:20:03.138Z,49.3
2022-12-03T02:21:07.847Z,49.3
2022-12-03T02:22:14.870Z,43.7
2022-12-03T02:23:09.661Z,43.7
2022-12-03T02:24:09.161Z,43.7
2022-12-03T02:25:11.193Z,43.7
2022-12-03T02:26:00.280Z,43.7
2022-12-03T02:27:00.519Z,50.7
2022-12-03T02:28:02.083Z,50.7
2022-12-03T02:29:00.409Z,50.7
2022-12-03T02:30:00.468Z,50.7
2022-12-03T02:31:00.285Z,50.7
2022-12-03T02:32:00.295Z,50.0
2022-12-03T02:33:00.774Z,50.0
2022-12-03T02:34:04.503Z,50.0
2022-12-03T02:35:00.199Z,50.0
2022-12-03T02:36:03.553Z,50.0
2022-12-03T02:37:01.609Z,42.8
2022-12-03T02:38:14.129Z,42.8
2022-12-03T02:39:01.085Z,42.8
2022-12-03T02:40:09.722Z,42.8
2022-12-03T02:41:06.262Z,42.8
2022-12-03T02:42:00.812Z,46.9
2022-12-03T02:43:02.231Z,46.9
2022-12-03T02:44:00.767Z,46.9
2022-12-03T02:45:05.779Z,46.9
2022-12-03T02:46:02.582Z,46.9
2022-12-03T02:47:00.641Z,41.5
2022-12-03T02:48:05.778Z,41.5
2022-12-03T02:49:01.164Z,41.5
2022-12-03T02:50:00.942Z,41.5
2022-12-03T02:51:04.186Z,41.5
2022-12-03T02:52:00.506Z,47.6
2022-12-03T02:53:04.504Z,47.6
2022-12-03T02:54:01.695Z,47.6
2022-12-03T02:55:02.094Z,47.6
2022-12-03T02:56:02.126Z,47.6
2022-12-03T02:57:00.646Z,44.5
2022-12-03T02:58:02.495Z,44.5
2022-12-03T02:59:02.697Z,44.5
2022-12-03T03:00:00.467Z,44.5
2022-12-03T03:01:03.195Z,44.5
2022-12-03T03:02:00.455Z,47.7
2022-12-03T03:03:02.784Z,47.7
2022-12-03T03:04:01.013Z,47.7
2022-12-03T03:05:00.377Z,47.7
2022-12-03T03:06:01.523Z,47.7
2022-12-03T03:07:00.264Z,45.9
2022-12-03T03:08:00.720Z,45.9
2022-12-03T03:09:01.688Z,45.9
2022-12-03T03:10:01.701Z,45.9
2022-12-03T03:11:01.153Z,45.9
2022-12-03T03:12:00.466Z,47.2
2022-12-03T03:13:03.659Z,47.2
2022-12-03T03:14:01.429Z,47.2
2022-12-03T03:15:00.357Z,47.2
2022-12-03T03:16:05.242Z,47.2
2022-12-03T03:17:00.488Z,46.9
2022-12-03T03:18:00.301Z,46.9
2022-12-03T03:19:00.820Z,46.9
2022-12-03T03:20:01.750Z,46.9
2022-12-03T03:21:00.509Z,46.9
2022-12-03T03:22:00.243Z,43.4
2022-12-03T03:23:11.792Z,43.4
2022-12-03T03:24:00.331Z,43.4
2022-12-03T03:25:00.792Z,43.4
2022-12-03T03:26:04.941Z,43.4
2022-12-03T03:27:00.351Z,44.9
2022-12-03T03:28:00.311Z,44.9
2022-12-03T03:29:00.302Z,44.9
2022-12-03T03:30:00.304Z,44.9
2022-12-03T03:31:03.292Z,44.9
2022-12-03T03:32:01.464Z,45.1
2022-12-03T03:33:00.633Z,45.1
2022-12-03T03:34:00.269Z,45.1
2022-12-03T03:35:00.921Z,45.1
2022-12-03T03:36:01.120Z,45.1
2022-12-03T03:37:00.339Z,44.5
2022-12-03T03:38:00.455Z,44.5
2022-12-03T03:39:00.546Z,44.5
2022-12-03T03:40:00.327Z,44.5
2022-12-03T03:41:03.177Z,44.5
2022-12-03T03:42:00.693Z,44.5
2022-12-03T03:43:00.806Z,44.5
2022-12-03T03:44:02.265Z,44.5
2022-12-03T03:45:00.662Z,44.5
2022-12-03T03:46:03.716Z,44.5
2022-12-03T03:47:01.071Z,42.4
2022-12-03T03:48:00.504Z,42.4
2022-12-03T03:49:01.647Z,42.4
2022-12-03T03:50:00.771Z,42.4
2022-12-03T03:51:02.108Z,42.4
2022-12-03T03:52:00.328Z,40.6
2022-12-03T03:53:01.824Z,40.6
2022-12-03T03:54:01.677Z,40.6
2022-12-03T03:55:00.365Z,40.6
2022-12-03T03:56:00.500Z,40.6
2022-12-03T03:57:00.345Z,44.2
2022-12-03T03:58:00.394Z,44.2
2022-12-03T03:59:01.409Z,44.2
2022-12-03T04:00:00.397Z,44.2
2022-12-03T04:01:00.759Z,44.2
2022-12-03T04:02:00.221Z,44.8
2022-12-03T04:03:00.267Z,44.8
2022-12-03T04:04:00.874Z,44.8
2022-12-03T04:05:00.292Z,44.8
2022-12-03T04:06:00.292Z,44.8
2022-12-03T04:07:00.269Z,45.6
2022-12-03T04:08:00.333Z,45.6
2022-12-03T04:09:00.201Z,45.6
2022-12-03T04:10:00.212Z,45.6
2022-12-03T04:11:00.276Z,45.6
2022-12-03T04:12:00.203Z,40.6
2022-12-03T04:13:00.444Z,40.6
2022-12-03T04:14:00.225Z,40.6
2022-12-03T04:15:00.298Z,40.6
2022-12-03T04:16:00.288Z,40.6
2022-12-03T04:17:00.353Z,45.2
2022-12-03T04:18:00.223Z,45.2
2022-12-03T04:19:00.229Z,45.2
2022-12-03T04:20:00.229Z,45.2
2022-12-03T04:21:00.265Z,45.2
2022-12-03T04:22:00.265Z,42.5
2022-12-03T04:23:00.253Z,42.5
2022-12-03T04:24:01.035Z,42.5
2022-12-03T04:25:00.237Z,42.5
2022-12-03T04:26:00.221Z,42.5
2022-12-03T04:27:00.205Z,47.3
2022-12-03T04:28:00.287Z,47.3
2022-12-03T04:29:00.299Z,47.3
2022-12-03T04:30:00.291Z,47.3
2022-12-03T04:31:00.306Z,47.3
2022-12-03T04:32:00.319Z,48.3
2022-12-03T04:33:00.239Z,48.3
2022-12-03T04:34:00.289Z,48.3
2022-12-03T04:35:00.318Z,48.3
2022-12-03T04:36:00.307Z,48.3
2022-12-03T04:37:00.363Z,44.9
2022-12-03T04:38:00.242Z,44.9
2022-12-03T04:39:00.208Z,44.9
2022-12-03T04:40:00.262Z,44.9
2022-12-03T04:41:00.259Z,44.9
2022-12-03T04:42:00.306Z,46.5
2022-12-03T04:43:00.224Z,46.5
2022-12-03T04:44:00.212Z,46.5
2022-12-03T04:45:00.204Z,46.5
2022-12-03T04:46:00.887Z,46.5
2022-12-03T04:47:02.603Z,44.7
2022-12-03T04:48:00.202Z,44.7
2022-12-03T04:49:00.339Z,44.7
2022-12-03T04:50:00.316Z,44.7
2022-12-03T04:51:00.292Z,44.7
2022-12-03T04:52:00.549Z,44.8
2022-12-03T04:53:00.213Z,44.8
2022-12-03T04:54:00.961Z,44.8
2022-12-03T04:55:00.285Z,44.8
2022-12-03T04:56:00.204Z,44.8
2022-12-03T04:57:00.529Z,49.5
2022-12-03T04:58:00.231Z,49.5
2022-12-03T04:59:00.363Z,49.5
2022-12-03T05:00:00.201Z,49.5
2022-12-03T05:01:00.241Z,49.5
2022-12-03T05:02:00.770Z,48.8
2022-12-03T05:03:00.580Z,48.8
2022-12-03T05:04:00.283Z,48.8
2022-12-03T05:05:00.374Z,48.8
2022-12-03T05:06:00.276Z,48.8
2022-12-03T05:07:00.995Z,45.0
2022-12-03T05:08:00.287Z,45.0
2022-12-03T05:09:00.455Z,45.0
2022-12-03T05:10:00.218Z,45.0
2022-12-03T05:11:00.208Z,45.0
2022-12-03T05:12:00.351Z,46.8
2022-12-03T05:13:00.211Z,46.8
2022-12-03T05:14:00.353Z,46.8
2022-12-03T05:15:00.301Z,46.8
2022-12-03T05:16:00.342Z,46.8
2022-12-03T05:17:00.379Z,46.1
2022-12-03T05:18:00.213Z,46.1
2022-12-03T05:19:01.035Z,46.1
2022-12-03T05:20:00.207Z,46.1
2022-12-03T05:21:00.216Z,46.1
2022-12-03T05:22:00.214Z,47.6
2022-12-03T05:23:00.207Z,47.6
2022-12-03T05:24:00.734Z,47.6
2022-12-03T05:25:00.306Z,47.6
2022-12-03T05:26:00.218Z,48.9
2022-12-03T05:27:00.232Z,48.9
2022-12-03T05:28:00.306Z,48.9
2022-12-03T05:29:00.254Z,48.9
2022-12-03T05:30:00.322Z,48.9
2022-12-03T05:31:00.291Z,48.1
2022-12-03T05:32:00.228Z,48.1
2022-12-03T05:33:00.256Z,48.1
2022-12-03T05:34:00.266Z,48.1
2022-12-03T05:35:00.282Z,48.1
2022-12-03T05:36:00.205Z,48.3
2022-12-03T05:37:00.202Z,48.3
2022-12-03T05:38:00.267Z,48.3
2022-12-03T05:39:00.219Z,48.3
2022-12-03T05:40:00.455Z,48.3
2022-12-03T05:41:00.414Z,49.0
2022-12-03T05:42:00.249Z,49.0
2022-12-03T05:43:00.287Z,49.0
2022-12-03T05:44:00.277Z,49.0
2022-12-03T05:45:00.302Z,49.0
2022-12-03T05:46:00.318Z,47.7
2022-12-03T05:47:00.215Z,47.7
2022-12-03T05:48:01.228Z,47.7
2022-12-03T05:49:00.264Z,47.7
2022-12-03T05:50:00.266Z,47.7
2022-12-03T05:51:00.231Z,49.5
2022-12-03T05:52:00.256Z,49.5
2022-12-03T05:53:00.274Z,49.5
2022-12-03T05:54:00.943Z,49.5
2022-12-03T05:55:00.285Z,49.5
2022-12-03T05:56:00.240Z,52.4
2022-12-03T05:57:00.216Z,52.4
2022-12-03T05:58:00.238Z,52.4
2022-12-03T05:59:00.266Z,52.4
2022-12-03T06:00:00.354Z,52.4
2022-12-03T06:01:00.481Z,48.1
2022-12-03T06:02:00.426Z,48.1
2022-12-03T06:03:00.380Z,48.1
2022-12-03T06:04:00.341Z,48.1
2022-12-03T06:05:00.215Z,48.1
2022-12-03T06:06:00.890Z,41.4
2022-12-03T06:07:00.196Z,41.4
2022-12-03T06:08:00.721Z,41.4
2022-12-03T06:09:00.243Z,41.4
2022-12-03T06:10:00.287Z,41.4
2022-12-03T06:11:00.369Z,46.3
2022-12-03T06:12:00.234Z,46.3
2022-12-03T06:13:00.290Z,46.3
2022-12-03T06:14:00.329Z,46.3
2022-12-03T06:15:00.263Z,46.3
2022-12-03T06:16:00.367Z,50.0
2022-12-03T06:17:01.271Z,50.0
2022-12-03T06:18:00.197Z,50.0
2022-12-03T06:19:00.205Z,50.0
2022-12-03T06:20:00.643Z,50.0
2022-12-03T06:21:00.202Z,47.1
2022-12-03T06:22:00.263Z,47.1
2022-12-03T06:23:00.466Z,47.1
2022-12-03T06:24:00.312Z,47.1
2022-12-03T06:25:06.177Z,47.1
2022-12-03T06:26:00.254Z,48.9
2022-12-03T06:27:00.282Z,48.9
2022-12-03T06:28:00.318Z,48.9
2022-12-03T06:29:00.256Z,48.9
2022-12-03T06:30:00.292Z,48.9
2022-12-03T06:31:00.320Z,48.9
2022-12-03T06:32:00.252Z,48.9
2022-12-03T06:33:00.448Z,48.9
2022-12-03T06:34:00.221Z,48.9
2022-12-03T06:35:00.230Z,48.9
2022-12-03T06:36:00.241Z,49.0
2022-12-03T06:37:00.214Z,49.0
2022-12-03T06:38:00.232Z,49.0
2022-12-03T06:39:00.235Z,49.0
2022-12-03T06:40:00.433Z,49.0
2022-12-03T06:41:00.243Z,49.5
2022-12-03T06:42:00.378Z,49.5
2022-12-03T06:43:00.226Z,49.5
2022-12-03T06:44:00.217Z,49.5
2022-12-03T06:45:00.394Z,49.5
2022-12-03T06:46:00.263Z,50.3
2022-12-03T06:47:00.465Z,50.3
2022-12-03T06:48:00.252Z,50.3
2022-12-03T06:49:00.262Z,50.3
2022-12-03T06:50:00.225Z,50.3
2022-12-03T06:51:00.191Z,48.0
2022-12-03T06:52:00.374Z,48.0
2022-12-03T06:53:00.327Z,48.0
2022-12-03T06:54:00.385Z,48.0
2022-12-03T06:55:00.314Z,48.0
2022-12-03T06:56:00.272Z,47.3
2022-12-03T06:57:00.209Z,47.3
2022-12-03T06:58:00.218Z,47.3
2022-12-03T06:59:00.270Z,47.3
2022-12-03T07:00:00.437Z,47.3
2022-12-03T07:01:00.229Z,46.6
2022-12-03T07:02:00.362Z,46.6
2022-12-03T07:03:00.310Z,46.6
2022-12-03T07:04:00.225Z,46.6
2022-12-03T07:05:00.308Z,46.6
2022-12-03T07:06:00.222Z,46.0
2022-12-03T07:07:00.205Z,46.0
2022-12-03T07:08:00.415Z,46.0
2022-12-03T07:09:00.204Z,46.0
2022-12-03T07:10:00.246Z,46.0
2022-12-03T07:11:00.263Z,42.4
2022-12-03T07:12:00.264Z,42.4
2022-12-03T07:13:00.260Z,42.4
2022-12-03T07:14:04.943Z,42.4
2022-12-03T07:15:00.322Z,42.4
2022-12-03T07:16:00.240Z,45.8
2022-12-03T07:17:00.274Z,45.8
2022-12-03T07:18:00.247Z,45.8
2022-12-03T07:19:00.637Z,45.8
2022-12-03T07:20:00.555Z,45.8
2022-12-03T07:21:00.216Z,43.3
2022-12-03T07:22:00.284Z,43.3
2022-12-03T07:23:00.370Z,43.3
2022-12-03T07:24:00.506Z,43.3
2022-12-03T07:25:00.240Z,43.3
2022-12-03T07:26:00.250Z,47.0
2022-12-03T07:27:00.267Z,47.0
2022-12-03T07:28:00.371Z,47.0
2022-12-03T07:29:00.231Z,47.0
2022-12-03T07:30:00.467Z,47.0
2022-12-03T07:31:00.313Z,48.0
2022-12-03T07:32:00.216Z,48.0
2022-12-03T07:33:00.745Z,48.0
2022-12-03T07:34:00.259Z,48.0
2022-12-03T07:35:00.233Z,48.0
2022-12-03T07:36:00.253Z,49.5
2022-12-03T07:37:00.257Z,49.5
2022-12-03T07:38:00.225Z,49.5
2022-12-03T07:39:00.217Z,49.5
2022-12-03T07:40:00.611Z,49.5
2022-12-03T07:41:00.335Z,49.9
2022-12-03T07:42:00.262Z,49.9
2022-12-03T07:43:00.326Z,49.9
2022-12-03T07:44:00.209Z,49.9
2022-12-03T07:45:00.222Z,49.9
2022-12-03T07:46:00.268Z,46.6
2022-12-03T07:47:00.378Z,46.6
2022-12-03T07:48:00.243Z,46.6
2022-12-03T07:49:00.191Z,46.6
2022-12-03T07:50:00.246Z,46.6
2022-12-03T07:51:00.265Z,46.8
2022-12-03T07:52:00.203Z,46.8
2022-12-03T07:53:00.272Z,46.8
2022-12-03T07:54:00.254Z,46.8
2022-12-03T07:55:00.263Z,46.8
2022-12-03T07:56:00.921Z,44.9
2022-12-03T07:57:01.774Z,44.9
2022-12-03T07:58:00.199Z,44.9
2022-12-03T07:59:00.303Z,44.9
2022-12-03T08:00:00.249Z,44.9
2022-12-03T08:01:00.438Z,41.5
2022-12-03T08:02:00.293Z,41.5
2022-12-03T08:03:00.227Z,41.5
2022-12-03T08:04:00.233Z,41.5
2022-12-03T08:05:00.277Z,41.5
2022-12-03T08:06:00.251Z,48.1
2022-12-03T08:07:00.240Z,48.1
2022-12-03T08:08:00.718Z,48.1
2022-12-03T08:09:00.233Z,48.1
2022-12-03T08:10:00.260Z,48.1
2022-12-03T08:11:01.329Z,46.7
2022-12-03T08:12:05.132Z,46.7
2022-12-03T08:13:03.953Z,46.7
2022-12-03T08:14:03.300Z,46.7
2022-12-03T08:15:00.672Z,46.7
2022-12-03T08:16:07.827Z,46.4
2022-12-03T08:17:00.359Z,46.4
2022-12-03T08:18:07.125Z,46.4
2022-12-03T08:19:01.330Z,46.4
2022-12-03T08:20:00.605Z,46.4
2022-12-03T08:21:00.350Z,44.6
2022-12-03T08:22:01.597Z,44.6
2022-12-03T08:23:08.894Z,44.6
2022-12-03T08:24:15.226Z,44.6
2022-12-03T08:25:00.299Z,44.6
2022-12-03T08:26:00.267Z,48.2
2022-12-03T08:27:00.295Z,48.2
2022-12-03T08:28:16.462Z,48.2
2022-12-03T08:29:00.213Z,48.2
2022-12-03T08:30:03.946Z,48.2
2022-12-03T08:31:14.709Z,48.4
2022-12-03T08:32:00.482Z,48.4
2022-12-03T08:33:00.694Z,48.4
2022-12-03T08:34:18.748Z,48.4
2022-12-03T08:35:00.991Z,48.4
2022-12-03T08:36:10.043Z,48.0
2022-12-03T08:37:17.299Z,48.0
2022-12-03T08:38:11.662Z,48.0
2022-12-03T08:39:20.211Z,48.0
2022-12-03T08:40:00.548Z,48.0
2022-12-03T08:41:00.341Z,43.9
2022-12-03T08:42:04.555Z,43.9
2022-12-03T08:44:08.065Z,43.9
2022-12-03T08:45:21.220Z,49.0
2022-12-03T08:46:00.661Z,49.0
2022-12-03T08:47:12.637Z,49.0
2022-12-03T08:51:19.097Z,46.9
2022-12-03T08:52:10.672Z,46.9
2022-12-03T08:53:18.706Z,46.9
2022-12-03T08:54:11.013Z,46.9
2022-12-03T08:55:19.759Z,50.1
2022-12-03T09:00:19.946Z,52.7
2022-12-03T09:12:00.808Z,48.9
2022-12-03T09:13:00.434Z,48.9
2022-12-03T09:14:00.226Z,48.9
2022-12-03T09:15:00.243Z,48.9
2022-12-03T09:16:00.263Z,46.4
2022-12-03T09:17:00.391Z,46.4
2022-12-03T09:18:00.238Z,46.4
2022-12-03T09:19:00.654Z,46.4
2022-12-03T09:20:00.252Z,46.4
2022-12-03T09:21:00.215Z,50.7
2022-12-03T09:22:00.246Z,50.7
2022-12-03T09:23:00.382Z,50.7
2022-12-03T09:24:00.264Z,50.7
2022-12-03T09:25:00.402Z,50.7
2022-12-03T09:26:00.246Z,51.1
2022-12-03T09:27:00.207Z,51.1
2022-12-03T09:28:00.264Z,51.1
2022-12-03T09:29:00.273Z,51.1
2022-12-03T09:30:00.250Z,51.1
2022-12-03T09:31:00.243Z,52.5
2022-12-03T09:32:00.388Z,52.5
2022-12-03T09:33:00.255Z,52.5
2022-12-03T09:34:01.031Z,52.5
2022-12-03T09:35:00.261Z,52.5
2022-12-03T09:36:00.235Z,52.6
2022-12-03T09:37:00.379Z,52.6
2022-12-03T09:38:00.352Z,52.6
2022-12-03T09:39:00.323Z,52.6
2022-12-03T09:40:00.276Z,52.6
2022-12-03T09:41:00.501Z,49.5
2022-12-03T09:42:00.996Z,49.5
2022-12-03T09:43:00.382Z,49.5
2022-12-03T09:44:05.299Z,49.5
2022-12-03T09:45:01.198Z,49.5
2022-12-03T09:46:00.329Z,53.8
2022-12-03T09:47:02.011Z,53.8
2022-12-03T09:48:01.681Z,53.8
2022-12-03T09:49:01.011Z,53.8
2022-12-03T09:50:00.472Z,53.8
2022-12-03T09:51:00.780Z,49.7
2022-12-03T09:52:02.708Z,49.7
2022-12-03T09:53:02.038Z,49.7
2022-12-03T09:54:03.746Z,49.7
2022-12-03T09:55:06.847Z,50.5
2022-12-03T09:56:00.324Z,50.5
2022-12-03T09:57:02.927Z,50.5
2022-12-03T09:58:00.852Z,50.5
2022-12-03T09:59:00.311Z,50.5
2022-12-03T10:00:00.228Z,50.5
2022-12-03T10:01:00.358Z,52.5
2022-12-03T10:02:01.189Z,52.5
2022-12-03T10:03:03.413Z,52.5
2022-12-03T10:04:00.878Z,52.5
2022-12-03T10:05:00.772Z,52.5
2022-12-03T10:06:00.218Z,50.1
2022-12-03T10:07:00.319Z,50.1
2022-12-03T10:08:06.975Z,50.1
2022-12-03T10:09:00.379Z,50.1
2022-12-03T10:10:00.399Z,50.1
2022-12-03T10:11:00.302Z,47.8
2022-12-03T10:12:00.343Z,47.8
2022-12-03T10:13:00.573Z,47.8
2022-12-03T10:14:00.357Z,47.8
2022-12-03T10:15:00.349Z,47.8
2022-12-03T10:16:00.399Z,48.8
2022-12-03T10:17:00.393Z,48.8
2022-12-03T10:18:17.691Z,48.8
2022-12-03T10:20:01.007Z,50.7
2022-12-03T10:21:00.524Z,50.7
2022-12-03T10:22:01.064Z,50.7
2022-12-03T10:23:00.252Z,50.7
2022-12-03T10:24:20.179Z,50.7
2022-12-03T10:25:10.499Z,55.6
2022-12-03T10:26:02.529Z,55.6
2022-12-03T10:27:04.093Z,55.6
2022-12-03T10:28:02.076Z,55.6
2022-12-03T10:29:00.347Z,55.6
2022-12-03T10:31:02.702Z,51.9
2022-12-03T10:32:05.122Z,51.9
2022-12-03T10:33:14.454Z,51.9
2022-12-03T10:34:00.317Z,51.9
2022-12-03T10:37:10.479Z,53.3
2022-12-03T10:38:01.681Z,53.3
2022-12-03T10:39:11.834Z,53.3
2022-12-03T10:40:07.010Z,57.4
2022-12-03T10:41:20.138Z,57.4
2022-12-03T10:42:13.386Z,57.4
2022-12-03T10:43:17.563Z,57.4
2022-12-03T10:44:14.504Z,57.4
2022-12-03T10:45:20.140Z,58.4
2022-12-03T10:46:03.742Z,58.4
2022-12-03T10:47:09.727Z,58.4
2022-12-03T10:48:03.257Z,58.4
2022-12-03T10:49:09.859Z,58.4
2022-12-03T10:50:02.664Z,55.8
2022-12-03T10:51:10.860Z,55.8
2022-12-03T10:52:00.621Z,55.8
2022-12-03T10:53:00.482Z,55.8
2022-12-03T10:54:00.945Z,55.8
2022-12-03T10:55:00.603Z,54.7
2022-12-03T10:56:03.372Z,54.7
2022-12-03T10:57:00.733Z,54.7
2022-12-03T10:58:00.378Z,54.7
2022-12-03T10:59:00.545Z,54.7
2022-12-03T11:00:00.462Z,49.6
2022-12-03T11:02:02.589Z,49.6
2022-12-03T11:03:00.465Z,49.6
2022-12-03T11:04:03.899Z,49.6
2022-12-03T11:05:01.496Z,50.9
2022-12-03T11:06:01.463Z,50.9
2022-12-03T11:08:03.597Z,50.9
2022-12-03T11:09:06.942Z,50.9
2022-12-03T11:10:00.456Z,55.3
2022-12-03T11:12:06.290Z,55.3
2022-12-03T11:13:20.164Z,55.3
2022-12-03T11:14:02.102Z,55.3
2022-12-03T11:15:01.783Z,52.5
2022-12-03T11:16:02.990Z,52.5
2022-12-03T11:17:00.331Z,52.5
2022-12-03T11:18:00.332Z,52.5
2022-12-03T11:19:01.094Z,52.5
2022-12-03T11:20:00.429Z,49.7
2022-12-03T11:21:03.227Z,49.7
2022-12-03T11:22:12.413Z,49.7
2022-12-03T11:23:00.900Z,49.7
2022-12-03T11:24:11.690Z,49.7
2022-12-03T11:25:20.188Z,52.5
2022-12-03T11:26:00.391Z,52.5
2022-12-03T11:27:00.381Z,52.5
2022-12-03T11:28:11.284Z,52.5
2022-12-03T11:29:00.499Z,52.5
2022-12-03T11:30:00.574Z,50.6
2022-12-03T11:31:03.602Z,50.6
2022-12-03T11:35:00.463Z,52.0
2022-12-03T11:36:03.624Z,52.0
2022-12-03T11:37:10.324Z,52.0
2022-12-03T11:40:12.694Z,54.5
2022-12-03T11:41:11.281Z,54.5
2022-12-03T11:46:08.453Z,53.4
2022-12-03T11:47:11.483Z,53.4
2022-12-03T11:48:04.586Z,53.4
2022-12-03T11:49:03.771Z,53.4
2022-12-03T11:50:00.635Z,52.5
2022-12-03T11:51:00.417Z,52.5
2022-12-03T11:52:11.321Z,52.5
2022-12-03T11:58:03.830Z,53.1
2022-12-03T11:59:02.493Z,53.1
2022-12-03T12:00:04.978Z,51.2
2022-12-03T12:04:20.184Z,51.2
2022-12-03T12:07:01.189Z,53.3
2022-12-03T12:08:01.407Z,53.3
2022-12-03T12:09:00.347Z,53.3
2022-12-03T12:10:01.072Z,55.0
2022-12-03T12:11:01.743Z,55.0
2022-12-03T12:12:18.247Z,55.0
2022-12-03T12:13:00.343Z,55.0
2022-12-03T12:14:02.590Z,55.0
2022-12-03T12:16:06.232Z,53.4
2022-12-03T12:17:00.432Z,53.4
2022-12-03T12:18:20.184Z,53.4
2022-12-03T12:22:20.188Z,56.7
2022-12-03T12:23:20.177Z,56.7
2022-12-03T12:24:20.177Z,56.7
2022-12-03T12:36:15.582Z,54.3
2022-12-03T12:37:00.310Z,54.3
2022-12-03T12:38:12.874Z,54.3
2022-12-03T12:39:00.363Z,54.3
2022-12-03T12:50:10.604Z,57.1
2022-12-03T13:02:01.701Z,58.0
2022-12-03T13:03:03.700Z,58.0
2022-12-03T13:17:12.934Z,56.0
2022-12-03T13:18:00.583Z,56.0
2022-12-03T13:19:01.197Z,56.0
2022-12-03T13:36:08.294Z,58.6
2022-12-03T13:37:00.922Z,58.6
2022-12-03T13:38:01.509Z,58.6
2022-12-03T13:39:07.603Z,58.6
2022-12-03T13:40:19.585Z,56.6
2022-12-03T13:41:02.288Z,56.6
2022-12-03T13:42:20.186Z,56.6
2022-12-03T13:43:20.182Z,56.6
2022-12-03T13:44:00.534Z,56.6
2022-12-03T13:45:01.761Z,56.4
2022-12-03T13:53:09.375Z,58.7
2022-12-03T13:54:00.517Z,58.7
2022-12-03T13:55:02.359Z,60.9
2022-12-03T13:56:17.666Z,60.9
2022-12-03T13:57:00.439Z,60.9
2022-12-03T13:58:00.322Z,60.9
2022-12-03T13:59:00.642Z,60.9
2022-12-03T14:00:00.409Z,60.6
2022-12-03T14:01:00.444Z,60.6
2022-12-03T14:05:00.950Z,57.6
2022-12-03T14:06:00.348Z,57.6
2022-12-03T14:12:01.395Z,59.2
2022-12-03T14:13:00.343Z,59.2
2022-12-03T14:14:00.297Z,59.2
2022-12-03T14:15:02.575Z,61.1
2022-12-03T14:16:01.600Z,61.1
2022-12-03T14:17:01.467Z,61.1
2022-12-03T14:18:04.732Z,61.1
2022-12-03T14:19:00.303Z,61.1
2022-12-03T14:20:03.868Z,59.4
2022-12-03T14:21:00.333Z,59.4
2022-12-03T14:22:00.273Z,59.4
2022-12-03T14:23:00.219Z,59.4
2022-12-03T14:24:00.268Z,59.4
2022-12-03T14:25:00.379Z,61.2
2022-12-03T14:26:00.233Z,61.2
2022-12-03T14:27:00.701Z,61.2
2022-12-03T14:28:01.397Z,61.2
2022-12-03T14:29:03.424Z,61.2
2022-12-03T14:30:00.220Z,62.0
2022-12-03T14:31:00.269Z,62.0
2022-12-03T14:32:02.631Z,62.0
2022-12-03T14:33:02.061Z,62.0
2022-12-03T14:34:00.248Z,62.0
2022-12-03T14:35:01.928Z,61.1
2022-12-03T14:36:00.236Z,61.1
2022-12-03T14:37:00.275Z,61.1
2022-12-03T14:38:00.247Z,61.1
2022-12-03T14:39:06.196Z,61.1
2022-12-03T14:40:06.064Z,57.1
2022-12-03T14:41:00.244Z,57.1
2022-12-03T14:42:00.270Z,57.1
2022-12-03T14:43:00.215Z,57.1
2022-12-03T14:44:00.333Z,57.1
2022-12-03T14:45:00.257Z,57.5
2022-12-03T14:46:10.480Z,57.5
2022-12-03T14:47:00.248Z,57.5
2022-12-03T14:48:05.726Z,57.5
2022-12-03T14:49:02.515Z,57.5
2022-12-03T14:50:00.550Z,54.7
2022-12-03T14:51:00.225Z,54.7
2022-12-03T14:52:00.314Z,54.7
2022-12-03T14:53:02.267Z,54.7
2022-12-03T14:54:00.216Z,54.7
2022-12-03T14:55:00.255Z,55.8
2022-12-03T14:56:03.626Z,55.8
2022-12-03T14:57:00.687Z,55.8
2022-12-03T14:58:00.260Z,55.8
2022-12-03T14:59:00.353Z,55.8
2022-12-03T15:00:01.551Z,59.8
2022-12-03T15:01:00.360Z,59.8
2022-12-03T15:02:04.233Z,59.8
2022-12-03T15:03:00.332Z,59.8
2022-12-03T15:04:00.296Z,59.8
2022-12-03T15:05:00.198Z,55.7
2022-12-03T15:06:00.211Z,55.7
2022-12-03T15:07:00.343Z,55.7
2022-12-03T15:08:00.292Z,55.7
2022-12-03T15:09:00.731Z,55.7
2022-12-03T15:10:00.237Z,56.5
2022-12-03T15:11:01.481Z,56.5
2022-12-03T15:12:01.745Z,56.5
2022-12-03T15:13:06.711Z,56.5
2022-12-03T15:14:11.402Z,51.9
2022-12-03T15:15:00.371Z,51.9
2022-12-03T15:16:00.733Z,51.9
2022-12-03T15:20:07.871Z,60.5
2022-12-03T15:21:03.296Z,60.5
2022-12-03T15:22:00.243Z,60.5
2022-12-03T15:23:00.370Z,60.5
2022-12-03T15:24:01.603Z,60.5
2022-12-03T15:25:00.275Z,55.4
2022-12-03T15:26:00.240Z,55.4